sensor_id;sensor_type;location;lat;lon;timestamp;P1;durP1;ratioP1;P2;durP2;ratioP2
20689;SDS011;10504;48.762;8.996;2024-03-06T00:00:47;0.30;;;0.30;;
20689;SDS011;10504;48.762;8.996;2024-03-06T00:03:13;0.30;;;0.30;;
20689;SDS011;10504;48.762;8.996;2024-03-06T00:05:39;0.63;;;0.50;;
20689;SDS011;10504;48.762;8.996;2024-03-06T00:08:04;0.30;;;0.30;;
20689;SDS011;10504;48.762;8.996;2024-03-06T00:10:30;0.30;;;0.30;;
20689;SDS011;10504;48.762;8.996;2024-03-06T00:12:56;0.27;;;0.27;;
20689;SDS011;10504;48.762;8.996;2024-03-06T00:15:21;0.40;;;0.40;;
20689;SDS011;10504;48.762;8.996;2024-03-06T00:17:47;0.33;;;0.33;;
20689;SDS011;10504;48.762;8.996;2024-03-06T00:20:13;0.30;;;0.30;;
20689;SDS011;10504;48.762;8.996;2024-03-06T00:22:39;0.40;;;0.40;;
20689;SDS011;10504;48.762;8.996;2024-03-06T00:25:05;0.37;;;0.37;;
20689;SDS011;10504;48.762;8.996;2024-03-06T00:27:31;0.30;;;0.30;;
20689;SDS011;10504;48.762;8.996;2024-03-06T00:29:57;0.30;;;0.30;;
20689;SDS011;10504;48.762;8.996;2024-03-06T00:32:22;0.30;;;0.30;;
20689;SDS011;10504;48.762;8.996;2024-03-06T00:34:48;0.30;;;0.30;;
20689;SDS011;10504;48.762;8.996;2024-03-06T00:37:14;0.20;;;0.20;;
20689;SDS011;10504;48.762;8.996;2024-03-06T00:39:40;0.40;;;0.40;;
20689;SDS011;10504;48.762;8.996;2024-03-06T00:42:05;0.30;;;0.30;;
20689;SDS011;10504;48.762;8.996;2024-03-06T00:44:33;0.20;;;0.20;;
20689;SDS011;10504;48.762;8.996;2024-03-06T00:46:59;0.30;;;0.30;;
20689;SDS011;10504;48.762;8.996;2024-03-06T00:49:25;0.50;;;0.50;;
20689;SDS011;10504;48.762;8.996;2024-03-06T00:51:51;0.73;;;0.40;;
20689;SDS011;10504;48.762;8.996;2024-03-06T00:54:16;0.40;;;0.40;;
20689;SDS011;10504;48.762;8.996;2024-03-06T00:56:42;0.20;;;0.20;;
20689;SDS011;10504;48.762;8.996;2024-03-06T00:59:08;0.60;;;0.60;;
20689;SDS011;10504;48.762;8.996;2024-03-06T01:01:33;0.40;;;0.40;;
20689;SDS011;10504;48.762;8.996;2024-03-06T01:03:59;0.30;;;0.30;;
20689;SDS011;10504;48.762;8.996;2024-03-06T01:06:25;0.37;;;0.37;;
20689;SDS011;10504;48.762;8.996;2024-03-06T01:08:50;0.30;;;0.30;;
20689;SDS011;10504;48.762;8.996;2024-03-06T01:11:16;1.40;;;0.93;;
20689;SDS011;10504;48.762;8.996;2024-03-06T01:13:42;0.30;;;0.30;;
20689;SDS011;10504;48.762;8.996;2024-03-06T01:16:07;0.83;;;0.60;;
20689;SDS011;10504;48.762;8.996;2024-03-06T01:18:33;0.37;;;0.27;;
20689;SDS011;10504;48.762;8.996;2024-03-06T01:20:59;0.30;;;0.30;;
20689;SDS011;10504;48.762;8.996;2024-03-06T01:23:24;2.33;;;1.03;;
20689;SDS011;10504;48.762;8.996;2024-03-06T01:25:50;1.10;;;1.00;;
20689;SDS011;10504;48.762;8.996;2024-03-06T01:28:15;0.37;;;0.37;;
20689;SDS011;10504;48.762;8.996;2024-03-06T01:30:41;0.20;;;0.20;;
20689;SDS011;10504;48.762;8.996;2024-03-06T01:33:07;0.40;;;0.40;;
20689;SDS011;10504;48.762;8.996;2024-03-06T01:35:32;0.20;;;0.20;;
20689;SDS011;10504;48.762;8.996;2024-03-06T01:37:58;0.40;;;0.40;;
20689;SDS011;10504;48.762;8.996;2024-03-06T01:40:23;0.67;;;0.60;;
20689;SDS011;10504;48.762;8.996;2024-03-06T01:42:49;0.50;;;0.50;;
20689;SDS011;10504;48.762;8.996;2024-03-06T01:45:16;0.77;;;0.50;;
20689;SDS011;10504;48.762;8.996;2024-03-06T01:47:42;0.27;;;0.27;;
20689;SDS011;10504;48.762;8.996;2024-03-06T01:50:07;1.10;;;0.60;;
20689;SDS011;10504;48.762;8.996;2024-03-06T01:52:35;0.77;;;0.60;;
20689;SDS011;10504;48.762;8.996;2024-03-06T01:55:04;0.50;;;0.50;;
20689;SDS011;10504;48.762;8.996;2024-03-06T01:57:31;0.20;;;0.20;;
20689;SDS011;10504;48.762;8.996;2024-03-06T01:59:58;0.30;;;0.30;;
20689;SDS011;10504;48.762;8.996;2024-03-06T02:02:24;0.57;;;0.57;;
20689;SDS011;10504;48.762;8.996;2024-03-06T02:04:52;0.50;;;0.50;;
20689;SDS011;10504;48.762;8.996;2024-03-06T02:07:18;0.27;;;0.27;;
20689;SDS011;10504;48.762;8.996;2024-03-06T02:09:45;0.40;;;0.40;;
20689;SDS011;10504;48.762;8.996;2024-03-06T02:12:11;1.23;;;1.03;;
20689;SDS011;10504;48.762;8.996;2024-03-06T02:14:38;4.63;;;0.50;;
20689;SDS011;10504;48.762;8.996;2024-03-06T02:17:03;0.20;;;0.20;;
20689;SDS011;10504;48.762;8.996;2024-03-06T02:19:42;0.37;;;0.37;;
20689;SDS011;10504;48.762;8.996;2024-03-06T02:22:09;0.73;;;0.43;;
20689;SDS011;10504;48.762;8.996;2024-03-06T02:24:35;0.30;;;0.30;;
20689;SDS011;10504;48.762;8.996;2024-03-06T02:27:02;0.40;;;0.40;;
20689;SDS011;10504;48.762;8.996;2024-03-06T02:29:30;0.30;;;0.30;;
20689;SDS011;10504;48.762;8.996;2024-03-06T02:31:58;0.83;;;0.60;;
20689;SDS011;10504;48.762;8.996;2024-03-06T02:34:23;2.00;;;1.10;;
20689;SDS011;10504;48.762;8.996;2024-03-06T02:36:50;0.30;;;0.30;;
20689;SDS011;10504;48.762;8.996;2024-03-06T02:39:16;0.30;;;0.30;;
20689;SDS011;10504;48.762;8.996;2024-03-06T02:41:42;1.50;;;0.63;;
20689;SDS011;10504;48.762;8.996;2024-03-06T02:44:08;0.63;;;0.50;;
20689;SDS011;10504;48.762;8.996;2024-03-06T02:46:34;0.77;;;0.50;;
20689;SDS011;10504;48.762;8.996;2024-03-06T02:48:59;0.50;;;0.50;;
20689;SDS011;10504;48.762;8.996;2024-03-06T02:51:25;0.20;;;0.20;;
20689;SDS011;10504;48.762;8.996;2024-03-06T02:53:51;0.43;;;0.43;;
20689;SDS011;10504;48.762;8.996;2024-03-06T02:56:18;0.20;;;0.20;;
20689;SDS011;10504;48.762;8.996;2024-03-06T02:58:44;0.47;;;0.47;;
20689;SDS011;10504;48.762;8.996;2024-03-06T03:01:13;0.30;;;0.30;;
20689;SDS011;10504;48.762;8.996;2024-03-06T03:03:42;0.30;;;0.30;;
20689;SDS011;10504;48.762;8.996;2024-03-06T03:06:09;0.30;;;0.30;;
20689;SDS011;10504;48.762;8.996;2024-03-06T03:08:36;0.30;;;0.30;;
20689;SDS011;10504;48.762;8.996;2024-03-06T03:11:02;0.73;;;0.73;;
20689;SDS011;10504;48.762;8.996;2024-03-06T03:13:28;0.40;;;0.40;;
20689;SDS011;10504;48.762;8.996;2024-03-06T03:15:55;0.47;;;0.47;;
20689;SDS011;10504;48.762;8.996;2024-03-06T03:18:20;0.30;;;0.30;;
20689;SDS011;10504;48.762;8.996;2024-03-06T03:20:46;0.30;;;0.30;;
20689;SDS011;10504;48.762;8.996;2024-03-06T03:23:12;0.30;;;0.30;;
20689;SDS011;10504;48.762;8.996;2024-03-06T03:25:40;0.30;;;0.30;;
20689;SDS011;10504;48.762;8.996;2024-03-06T03:28:08;0.40;;;0.40;;
20689;SDS011;10504;48.762;8.996;2024-03-06T03:30:34;0.83;;;0.70;;
20689;SDS011;10504;48.762;8.996;2024-03-06T03:33:00;0.47;;;0.47;;
20689;SDS011;10504;48.762;8.996;2024-03-06T03:35:26;0.30;;;0.30;;
20689;SDS011;10504;48.762;8.996;2024-03-06T03:37:51;0.30;;;0.30;;
20689;SDS011;10504;48.762;8.996;2024-03-06T03:40:17;0.80;;;0.80;;
20689;SDS011;10504;48.762;8.996;2024-03-06T03:42:44;0.67;;;0.67;;
20689;SDS011;10504;48.762;8.996;2024-03-06T03:45:09;0.50;;;0.50;;
20689;SDS011;10504;48.762;8.996;2024-03-06T03:47:35;0.30;;;0.30;;
20689;SDS011;10504;48.762;8.996;2024-03-06T03:50:00;0.30;;;0.30;;
20689;SDS011;10504;48.762;8.996;2024-03-06T03:52:26;0.67;;;0.67;;
20689;SDS011;10504;48.762;8.996;2024-03-06T03:54:52;0.43;;;0.43;;
20689;SDS011;10504;48.762;8.996;2024-03-06T03:57:17;1.17;;;0.70;;
20689;SDS011;10504;48.762;8.996;2024-03-06T03:59:43;0.20;;;0.20;;
20689;SDS011;10504;48.762;8.996;2024-03-06T04:02:08;0.30;;;0.30;;
20689;SDS011;10504;48.762;8.996;2024-03-06T04:04:34;0.20;;;0.20;;
20689;SDS011;10504;48.762;8.996;2024-03-06T04:07:00;0.33;;;0.33;;
20689;SDS011;10504;48.762;8.996;2024-03-06T04:09:29;0.50;;;0.50;;
20689;SDS011;10504;48.762;8.996;2024-03-06T04:11:55;0.30;;;0.30;;
20689;SDS011;10504;48.762;8.996;2024-03-06T04:14:21;0.30;;;0.30;;
20689;SDS011;10504;48.762;8.996;2024-03-06T04:16:47;0.40;;;0.40;;
20689;SDS011;10504;48.762;8.996;2024-03-06T04:19:13;0.50;;;0.50;;
20689;SDS011;10504;48.762;8.996;2024-03-06T04:21:42;0.30;;;0.30;;
20689;SDS011;10504;48.762;8.996;2024-03-06T04:24:08;0.33;;;0.33;;
20689;SDS011;10504;48.762;8.996;2024-03-06T04:26:34;0.30;;;0.30;;
20689;SDS011;10504;48.762;8.996;2024-03-06T04:29:00;0.50;;;0.50;;
20689;SDS011;10504;48.762;8.996;2024-03-06T04:31:26;0.40;;;0.40;;
20689;SDS011;10504;48.762;8.996;2024-03-06T04:33:55;0.30;;;0.30;;
20689;SDS011;10504;48.762;8.996;2024-03-06T04:36:20;0.30;;;0.30;;
20689;SDS011;10504;48.762;8.996;2024-03-06T04:38:46;0.23;;;0.23;;
20689;SDS011;10504;48.762;8.996;2024-03-06T04:41:11;0.40;;;0.40;;
20689;SDS011;10504;48.762;8.996;2024-03-06T04:43:37;0.40;;;0.40;;
20689;SDS011;10504;48.762;8.996;2024-03-06T04:46:03;0.63;;;0.63;;
20689;SDS011;10504;48.762;8.996;2024-03-06T04:48:29;0.27;;;0.27;;
20689;SDS011;10504;48.762;8.996;2024-03-06T04:50:55;0.30;;;0.30;;
20689;SDS011;10504;48.762;8.996;2024-03-06T04:53:20;0.50;;;0.50;;
20689;SDS011;10504;48.762;8.996;2024-03-06T04:55:46;0.30;;;0.30;;
20689;SDS011;10504;48.762;8.996;2024-03-06T04:58:12;0.30;;;0.30;;
20689;SDS011;10504;48.762;8.996;2024-03-06T05:00:38;1.20;;;0.80;;
20689;SDS011;10504;48.762;8.996;2024-03-06T05:03:03;0.50;;;0.50;;
20689;SDS011;10504;48.762;8.996;2024-03-06T05:05:30;0.20;;;0.20;;
20689;SDS011;10504;48.762;8.996;2024-03-06T05:07:55;0.93;;;0.60;;
20689;SDS011;10504;48.762;8.996;2024-03-06T05:10:21;3.47;;;1.10;;
20689;SDS011;10504;48.762;8.996;2024-03-06T05:12:47;0.40;;;0.40;;
20689;SDS011;10504;48.762;8.996;2024-03-06T05:15:14;0.67;;;0.67;;
20689;SDS011;10504;48.762;8.996;2024-03-06T05:17:40;1.23;;;0.50;;
20689;SDS011;10504;48.762;8.996;2024-03-06T05:20:06;0.50;;;0.50;;
20689;SDS011;10504;48.762;8.996;2024-03-06T05:22:32;0.87;;;0.87;;
20689;SDS011;10504;48.762;8.996;2024-03-06T05:24:58;0.30;;;0.30;;
20689;SDS011;10504;48.762;8.996;2024-03-06T05:27:23;1.43;;;0.70;;
20689;SDS011;10504;48.762;8.996;2024-03-06T05:29:51;1.63;;;1.53;;
20689;SDS011;10504;48.762;8.996;2024-03-06T05:32:17;2.57;;;1.33;;
20689;SDS011;10504;48.762;8.996;2024-03-06T05:34:42;2.27;;;1.83;;
20689;SDS011;10504;48.762;8.996;2024-03-06T05:37:09;5.30;;;1.53;;
20689;SDS011;10504;48.762;8.996;2024-03-06T05:39:35;2.63;;;0.60;;
20689;SDS011;10504;48.762;8.996;2024-03-06T05:42:02;0.33;;;0.33;;
20689;SDS011;10504;48.762;8.996;2024-03-06T05:44:29;0.70;;;0.70;;
20689;SDS011;10504;48.762;8.996;2024-03-06T05:46:55;0.90;;;0.90;;
20689;SDS011;10504;48.762;8.996;2024-03-06T05:49:22;0.57;;;0.57;;
20689;SDS011;10504;48.762;8.996;2024-03-06T05:51:47;2.20;;;1.67;;
20689;SDS011;10504;48.762;8.996;2024-03-06T05:54:13;0.50;;;0.50;;
20689;SDS011;10504;48.762;8.996;2024-03-06T05:56:39;1.07;;;0.97;;
20689;SDS011;10504;48.762;8.996;2024-03-06T05:59:04;0.60;;;0.60;;
20689;SDS011;10504;48.762;8.996;2024-03-06T06:01:33;0.50;;;0.50;;
20689;SDS011;10504;48.762;8.996;2024-03-06T06:04:01;0.30;;;0.30;;
20689;SDS011;10504;48.762;8.996;2024-03-06T06:06:27;0.40;;;0.40;;
20689;SDS011;10504;48.762;8.996;2024-03-06T06:08:53;1.20;;;0.97;;
20689;SDS011;10504;48.762;8.996;2024-03-06T06:11:19;0.30;;;0.30;;
20689;SDS011;10504;48.762;8.996;2024-03-06T06:13:45;0.40;;;0.40;;
20689;SDS011;10504;48.762;8.996;2024-03-06T06:16:10;1.67;;;1.30;;
20689;SDS011;10504;48.762;8.996;2024-03-06T06:18:37;0.57;;;0.57;;
20689;SDS011;10504;48.762;8.996;2024-03-06T06:21:02;1.00;;;0.70;;
20689;SDS011;10504;48.762;8.996;2024-03-06T06:23:32;1.80;;;1.50;;
20689;SDS011;10504;48.762;8.996;2024-03-06T06:25:58;0.60;;;0.60;;
20689;SDS011;10504;48.762;8.996;2024-03-06T06:28:23;2.00;;;1.10;;
20689;SDS011;10504;48.762;8.996;2024-03-06T06:30:49;0.80;;;0.77;;
20689;SDS011;10504;48.762;8.996;2024-03-06T06:33:17;0.30;;;0.30;;
20689;SDS011;10504;48.762;8.996;2024-03-06T06:35:46;0.50;;;0.50;;
20689;SDS011;10504;48.762;8.996;2024-03-06T06:38:12;0.67;;;0.67;;
20689;SDS011;10504;48.762;8.996;2024-03-06T06:40:38;0.73;;;0.73;;
20689;SDS011;10504;48.762;8.996;2024-03-06T06:43:05;0.53;;;0.53;;
20689;SDS011;10504;48.762;8.996;2024-03-06T06:45:31;0.50;;;0.50;;
20689;SDS011;10504;48.762;8.996;2024-03-06T06:47:57;2.17;;;1.83;;
20689;SDS011;10504;48.762;8.996;2024-03-06T06:50:22;4.43;;;1.97;;
20689;SDS011;10504;48.762;8.996;2024-03-06T06:52:50;4.23;;;0.97;;
20689;SDS011;10504;48.762;8.996;2024-03-06T06:55:16;1.27;;;0.97;;
20689;SDS011;10504;48.762;8.996;2024-03-06T06:57:42;0.67;;;0.60;;
20689;SDS011;10504;48.762;8.996;2024-03-06T07:00:09;6.23;;;0.77;;
20689;SDS011;10504;48.762;8.996;2024-03-06T07:02:38;0.53;;;0.53;;
20689;SDS011;10504;48.762;8.996;2024-03-06T07:05:04;0.87;;;0.70;;
20689;SDS011;10504;48.762;8.996;2024-03-06T07:07:30;0.77;;;0.77;;
20689;SDS011;10504;48.762;8.996;2024-03-06T07:09:56;0.50;;;0.50;;
20689;SDS011;10504;48.762;8.996;2024-03-06T07:12:22;0.30;;;0.30;;
20689;SDS011;10504;48.762;8.996;2024-03-06T07:14:48;0.77;;;0.77;;
20689;SDS011;10504;48.762;8.996;2024-03-06T07:17:13;0.47;;;0.47;;
20689;SDS011;10504;48.762;8.996;2024-03-06T07:19:39;2.10;;;1.90;;
20689;SDS011;10504;48.762;8.996;2024-03-06T07:22:05;0.87;;;0.87;;
20689;SDS011;10504;48.762;8.996;2024-03-06T07:24:31;0.60;;;0.60;;
20689;SDS011;10504;48.762;8.996;2024-03-06T07:26:56;1.40;;;1.27;;
20689;SDS011;10504;48.762;8.996;2024-03-06T07:29:22;0.30;;;0.30;;
20689;SDS011;10504;48.762;8.996;2024-03-06T07:31:47;0.33;;;0.33;;
20689;SDS011;10504;48.762;8.996;2024-03-06T07:34:13;0.73;;;0.60;;
20689;SDS011;10504;48.762;8.996;2024-03-06T07:36:42;0.57;;;0.57;;
20689;SDS011;10504;48.762;8.996;2024-03-06T07:39:08;0.40;;;0.40;;
20689;SDS011;10504;48.762;8.996;2024-03-06T07:41:34;3.17;;;1.27;;
20689;SDS011;10504;48.762;8.996;2024-03-06T07:44:00;0.30;;;0.30;;
20689;SDS011;10504;48.762;8.996;2024-03-06T07:46:26;0.60;;;0.60;;
20689;SDS011;10504;48.762;8.996;2024-03-06T07:48:51;0.87;;;0.87;;
20689;SDS011;10504;48.762;8.996;2024-03-06T07:51:17;0.67;;;0.67;;
20689;SDS011;10504;48.762;8.996;2024-03-06T07:53:43;0.63;;;0.63;;
20689;SDS011;10504;48.762;8.996;2024-03-06T07:56:11;3.13;;;0.70;;
20689;SDS011;10504;48.762;8.996;2024-03-06T07:58:37;0.93;;;0.93;;
20689;SDS011;10504;48.762;8.996;2024-03-06T08:01:03;0.87;;;0.87;;
20689;SDS011;10504;48.762;8.996;2024-03-06T08:03:29;0.50;;;0.50;;
20689;SDS011;10504;48.762;8.996;2024-03-06T08:05:55;1.17;;;1.07;;
20689;SDS011;10504;48.762;8.996;2024-03-06T08:08:20;0.50;;;0.50;;
20689;SDS011;10504;48.762;8.996;2024-03-06T08:10:46;0.57;;;0.50;;
20689;SDS011;10504;48.762;8.996;2024-03-06T08:13:13;0.40;;;0.40;;
20689;SDS011;10504;48.762;8.996;2024-03-06T08:15:39;0.70;;;0.70;;
20689;SDS011;10504;48.762;8.996;2024-03-06T08:18:05;0.80;;;0.70;;
20689;SDS011;10504;48.762;8.996;2024-03-06T08:20:31;4.60;;;1.17;;
20689;SDS011;10504;48.762;8.996;2024-03-06T08:22:58;0.63;;;0.63;;
20689;SDS011;10504;48.762;8.996;2024-03-06T08:25:24;0.40;;;0.40;;
20689;SDS011;10504;48.762;8.996;2024-03-06T08:27:49;0.70;;;0.70;;
20689;SDS011;10504;48.762;8.996;2024-03-06T08:30:15;1.13;;;1.07;;
20689;SDS011;10504;48.762;8.996;2024-03-06T08:32:41;1.73;;;1.40;;
20689;SDS011;10504;48.762;8.996;2024-03-06T08:35:09;1.13;;;0.97;;
20689;SDS011;10504;48.762;8.996;2024-03-06T08:37:41;0.50;;;0.50;;
20689;SDS011;10504;48.762;8.996;2024-03-06T08:40:07;0.47;;;0.47;;
20689;SDS011;10504;48.762;8.996;2024-03-06T08:42:35;0.53;;;0.53;;
20689;SDS011;10504;48.762;8.996;2024-03-06T08:45:01;0.57;;;0.57;;
20689;SDS011;10504;48.762;8.996;2024-03-06T08:47:27;0.87;;;0.87;;
20689;SDS011;10504;48.762;8.996;2024-03-06T08:49:53;0.30;;;0.30;;
20689;SDS011;10504;48.762;8.996;2024-03-06T08:52:19;0.87;;;0.73;;
20689;SDS011;10504;48.762;8.996;2024-03-06T08:54:45;1.23;;;1.03;;
20689;SDS011;10504;48.762;8.996;2024-03-06T08:57:11;0.60;;;0.60;;
20689;SDS011;10504;48.762;8.996;2024-03-06T08:59:37;0.50;;;0.50;;
20689;SDS011;10504;48.762;8.996;2024-03-06T09:02:13;1.80;;;1.00;;
20689;SDS011;10504;48.762;8.996;2024-03-06T09:04:40;0.77;;;0.70;;
20689;SDS011;10504;48.762;8.996;2024-03-06T09:07:09;0.73;;;0.73;;
20689;SDS011;10504;48.762;8.996;2024-03-06T09:09:35;0.93;;;0.80;;
20689;SDS011;10504;48.762;8.996;2024-03-06T09:12:02;0.80;;;0.53;;
20689;SDS011;10504;48.762;8.996;2024-03-06T09:14:32;0.40;;;0.40;;
20689;SDS011;10504;48.762;8.996;2024-03-06T09:16:58;0.67;;;0.67;;
20689;SDS011;10504;48.762;8.996;2024-03-06T09:19:24;1.77;;;1.00;;
20689;SDS011;10504;48.762;8.996;2024-03-06T09:21:50;0.60;;;0.60;;
20689;SDS011;10504;48.762;8.996;2024-03-06T09:24:15;0.77;;;0.77;;
20689;SDS011;10504;48.762;8.996;2024-03-06T09:26:41;0.30;;;0.30;;
20689;SDS011;10504;48.762;8.996;2024-03-06T09:29:08;0.97;;;0.73;;
20689;SDS011;10504;48.762;8.996;2024-03-06T09:31:35;1.23;;;1.13;;
20689;SDS011;10504;48.762;8.996;2024-03-06T09:34:01;0.60;;;0.60;;
20689;SDS011;10504;48.762;8.996;2024-03-06T09:36:27;0.53;;;0.53;;
20689;SDS011;10504;48.762;8.996;2024-03-06T09:38:53;0.50;;;0.50;;
20689;SDS011;10504;48.762;8.996;2024-03-06T09:41:20;1.43;;;1.33;;
20689;SDS011;10504;48.762;8.996;2024-03-06T09:43:47;1.03;;;0.73;;
20689;SDS011;10504;48.762;8.996;2024-03-06T09:46:13;0.63;;;0.63;;
20689;SDS011;10504;48.762;8.996;2024-03-06T09:48:46;0.73;;;0.73;;
20689;SDS011;10504;48.762;8.996;2024-03-06T09:51:13;0.53;;;0.53;;
20689;SDS011;10504;48.762;8.996;2024-03-06T09:53:39;1.13;;;0.90;;
20689;SDS011;10504;48.762;8.996;2024-03-06T09:56:08;2.90;;;1.13;;
20689;SDS011;10504;48.762;8.996;2024-03-06T09:58:34;3.77;;;1.80;;
20689;SDS011;10504;48.762;8.996;2024-03-06T10:01:00;1.10;;;0.80;;
20689;SDS011;10504;48.762;8.996;2024-03-06T10:03:32;1.03;;;0.67;;
20689;SDS011;10504;48.762;8.996;2024-03-06T10:06:01;4.23;;;1.90;;
20689;SDS011;10504;48.762;8.996;2024-03-06T10:08:27;1.63;;;1.43;;
20689;SDS011;10504;48.762;8.996;2024-03-06T10:10:53;1.57;;;1.40;;
20689;SDS011;10504;48.762;8.996;2024-03-06T10:13:25;0.70;;;0.70;;
20689;SDS011;10504;48.762;8.996;2024-03-06T10:15:59;1.07;;;0.83;;
20689;SDS011;10504;48.762;8.996;2024-03-06T10:18:26;1.63;;;1.53;;
20689;SDS011;10504;48.762;8.996;2024-03-06T10:20:53;0.80;;;0.80;;
20689;SDS011;10504;48.762;8.996;2024-03-06T10:23:19;1.77;;;1.30;;
20689;SDS011;10504;48.762;8.996;2024-03-06T10:25:48;3.47;;;2.23;;
20689;SDS011;10504;48.762;8.996;2024-03-06T10:28:18;1.13;;;1.00;;
20689;SDS011;10504;48.762;8.996;2024-03-06T10:30:44;0.60;;;0.60;;
20689;SDS011;10504;48.762;8.996;2024-03-06T10:33:14;3.10;;;1.57;;
20689;SDS011;10504;48.762;8.996;2024-03-06T10:35:42;1.30;;;1.20;;
20689;SDS011;10504;48.762;8.996;2024-03-06T10:38:09;0.90;;;0.90;;
20689;SDS011;10504;48.762;8.996;2024-03-06T10:40:39;2.53;;;2.27;;
20689;SDS011;10504;48.762;8.996;2024-03-06T10:43:06;1.23;;;1.13;;
20689;SDS011;10504;48.762;8.996;2024-03-06T10:48:08;2.43;;;2.20;;
20689;SDS011;10504;48.762;8.996;2024-03-06T10:50:36;1.00;;;1.00;;
20689;SDS011;10504;48.762;8.996;2024-03-06T10:53:07;3.23;;;2.23;;
20689;SDS011;10504;48.762;8.996;2024-03-06T10:55:37;1.40;;;1.30;;
20689;SDS011;10504;48.762;8.996;2024-03-06T10:58:07;1.83;;;1.73;;
20689;SDS011;10504;48.762;8.996;2024-03-06T11:03:09;2.67;;;1.97;;
20689;SDS011;10504;48.762;8.996;2024-03-06T11:05:40;3.37;;;2.00;;
20689;SDS011;10504;48.762;8.996;2024-03-06T11:08:11;2.77;;;2.13;;
20689;SDS011;10504;48.762;8.996;2024-03-06T11:10:40;1.60;;;1.47;;
20689;SDS011;10504;48.762;8.996;2024-03-06T11:15:44;1.23;;;1.13;;
20689;SDS011;10504;48.762;8.996;2024-03-06T11:23:32;2.10;;;1.93;;
20689;SDS011;10504;48.762;8.996;2024-03-06T11:26:05;4.87;;;3.57;;
20689;SDS011;10504;48.762;8.996;2024-03-06T11:28:32;3.97;;;1.77;;
20689;SDS011;10504;48.762;8.996;2024-03-06T11:31:03;2.20;;;1.67;;
20689;SDS011;10504;48.762;8.996;2024-03-06T11:33:37;3.87;;;2.93;;
20689;SDS011;10504;48.762;8.996;2024-03-06T11:41:33;1.07;;;1.03;;
20689;SDS011;10504;48.762;8.996;2024-03-06T11:44:16;2.80;;;2.07;;
20689;SDS011;10504;48.762;8.996;2024-03-06T11:46:47;6.83;;;2.47;;
20689;SDS011;10504;48.762;8.996;2024-03-06T11:51:50;1.60;;;1.47;;
20689;SDS011;10504;48.762;8.996;2024-03-06T11:54:17;1.27;;;1.17;;
20689;SDS011;10504;48.762;8.996;2024-03-06T11:56:51;2.30;;;2.10;;
20689;SDS011;10504;48.762;8.996;2024-03-06T11:59:22;1.27;;;1.27;;
20689;SDS011;10504;48.762;8.996;2024-03-06T12:01:48;4.50;;;1.33;;
20689;SDS011;10504;48.762;8.996;2024-03-06T12:04:14;3.80;;;1.67;;
20689;SDS011;10504;48.762;8.996;2024-03-06T12:06:39;4.03;;;2.87;;
20689;SDS011;10504;48.762;8.996;2024-03-06T12:09:05;3.13;;;2.67;;
20689;SDS011;10504;48.762;8.996;2024-03-06T12:11:36;1.27;;;1.17;;
20689;SDS011;10504;48.762;8.996;2024-03-06T12:14:02;2.43;;;1.73;;
20689;SDS011;10504;48.762;8.996;2024-03-06T12:16:28;8.30;;;2.47;;
20689;SDS011;10504;48.762;8.996;2024-03-06T12:18:57;1.57;;;1.47;;
20689;SDS011;10504;48.762;8.996;2024-03-06T12:21:33;2.63;;;1.90;;
20689;SDS011;10504;48.762;8.996;2024-03-06T12:24:05;1.50;;;1.40;;
20689;SDS011;10504;48.762;8.996;2024-03-06T12:26:36;1.43;;;1.33;;
20689;SDS011;10504;48.762;8.996;2024-03-06T12:29:09;1.37;;;1.00;;
20689;SDS011;10504;48.762;8.996;2024-03-06T12:31:37;3.87;;;1.90;;
20689;SDS011;10504;48.762;8.996;2024-03-06T12:34:04;2.87;;;2.27;;
20689;SDS011;10504;48.762;8.996;2024-03-06T12:36:31;2.00;;;1.80;;
20689;SDS011;10504;48.762;8.996;2024-03-06T12:39:02;1.00;;;1.00;;
20689;SDS011;10504;48.762;8.996;2024-03-06T12:41:28;4.00;;;2.60;;
20689;SDS011;10504;48.762;8.996;2024-03-06T12:43:55;1.40;;;1.30;;
20689;SDS011;10504;48.762;8.996;2024-03-06T12:46:21;4.10;;;2.47;;
20689;SDS011;10504;48.762;8.996;2024-03-06T12:48:51;2.23;;;2.03;;
20689;SDS011;10504;48.762;8.996;2024-03-06T12:51:17;2.73;;;2.50;;
20689;SDS011;10504;48.762;8.996;2024-03-06T12:53:43;3.43;;;2.13;;
20689;SDS011;10504;48.762;8.996;2024-03-06T12:56:08;4.60;;;2.80;;
20689;SDS011;10504;48.762;8.996;2024-03-06T12:58:35;3.47;;;1.83;;
20689;SDS011;10504;48.762;8.996;2024-03-06T13:01:00;2.00;;;1.47;;
20689;SDS011;10504;48.762;8.996;2024-03-06T13:03:26;1.00;;;1.00;;
20689;SDS011;10504;48.762;8.996;2024-03-06T13:05:52;2.97;;;2.03;;
20689;SDS011;10504;48.762;8.996;2024-03-06T13:08:18;2.87;;;1.77;;
20689;SDS011;10504;48.762;8.996;2024-03-06T13:10:44;1.80;;;1.70;;
20689;SDS011;10504;48.762;8.996;2024-03-06T13:13:10;1.33;;;1.23;;
20689;SDS011;10504;48.762;8.996;2024-03-06T13:15:35;3.73;;;2.30;;
20689;SDS011;10504;48.762;8.996;2024-03-06T13:18:04;5.43;;;1.90;;
20689;SDS011;10504;48.762;8.996;2024-03-06T13:20:31;2.93;;;1.93;;
20689;SDS011;10504;48.762;8.996;2024-03-06T13:22:57;2.40;;;2.07;;
20689;SDS011;10504;48.762;8.996;2024-03-06T13:25:23;2.57;;;1.67;;
20689;SDS011;10504;48.762;8.996;2024-03-06T13:27:49;1.60;;;1.50;;
20689;SDS011;10504;48.762;8.996;2024-03-06T13:30:19;3.57;;;2.03;;
20689;SDS011;10504;48.762;8.996;2024-03-06T13:32:45;1.57;;;1.47;;
20689;SDS011;10504;48.762;8.996;2024-03-06T13:35:11;1.13;;;1.13;;
20689;SDS011;10504;48.762;8.996;2024-03-06T13:37:41;1.80;;;1.60;;
20689;SDS011;10504;48.762;8.996;2024-03-06T13:40:11;2.37;;;2.13;;
20689;SDS011;10504;48.762;8.996;2024-03-06T13:42:41;3.03;;;1.80;;
20689;SDS011;10504;48.762;8.996;2024-03-06T13:45:07;1.03;;;1.03;;
20689;SDS011;10504;48.762;8.996;2024-03-06T13:47:37;1.17;;;1.10;;
20689;SDS011;10504;48.762;8.996;2024-03-06T13:50:09;0.93;;;0.80;;
20689;SDS011;10504;48.762;8.996;2024-03-06T13:52:39;4.60;;;2.03;;
20689;SDS011;10504;48.762;8.996;2024-03-06T13:55:06;1.60;;;1.33;;
20689;SDS011;10504;48.762;8.996;2024-03-06T13:57:33;5.80;;;3.30;;
20689;SDS011;10504;48.762;8.996;2024-03-06T14:00:03;2.40;;;2.20;;
20689;SDS011;10504;48.762;8.996;2024-03-06T14:02:30;1.70;;;1.60;;
20689;SDS011;10504;48.762;8.996;2024-03-06T14:04:56;1.73;;;1.63;;
20689;SDS011;10504;48.762;8.996;2024-03-06T14:07:23;2.17;;;1.80;;
20689;SDS011;10504;48.762;8.996;2024-03-06T14:09:49;3.53;;;2.57;;
20689;SDS011;10504;48.762;8.996;2024-03-06T14:12:16;1.63;;;1.53;;
20689;SDS011;10504;48.762;8.996;2024-03-06T14:14:42;3.50;;;2.43;;
20689;SDS011;10504;48.762;8.996;2024-03-06T14:17:07;2.40;;;2.20;;
20689;SDS011;10504;48.762;8.996;2024-03-06T14:19:33;3.47;;;1.57;;
20689;SDS011;10504;48.762;8.996;2024-03-06T14:21:59;2.67;;;1.53;;
20689;SDS011;10504;48.762;8.996;2024-03-06T14:24:25;1.13;;;1.13;;
20689;SDS011;10504;48.762;8.996;2024-03-06T14:26:50;2.30;;;1.53;;
20689;SDS011;10504;48.762;8.996;2024-03-06T14:29:16;3.60;;;2.63;;
20689;SDS011;10504;48.762;8.996;2024-03-06T14:31:41;3.83;;;2.10;;
20689;SDS011;10504;48.762;8.996;2024-03-06T14:34:07;18.67;;;2.57;;
20689;SDS011;10504;48.762;8.996;2024-03-06T14:36:33;1.10;;;1.10;;
20689;SDS011;10504;48.762;8.996;2024-03-06T14:38:59;4.20;;;2.47;;
20689;SDS011;10504;48.762;8.996;2024-03-06T14:41:25;0.97;;;0.97;;
20689;SDS011;10504;48.762;8.996;2024-03-06T14:43:51;1.63;;;1.53;;
20689;SDS011;10504;48.762;8.996;2024-03-06T14:46:16;2.47;;;1.93;;
20689;SDS011;10504;48.762;8.996;2024-03-06T14:48:43;3.87;;;2.57;;
20689;SDS011;10504;48.762;8.996;2024-03-06T14:51:09;3.23;;;2.53;;
20689;SDS011;10504;48.762;8.996;2024-03-06T14:53:35;5.50;;;3.70;;
20689;SDS011;10504;48.762;8.996;2024-03-06T14:56:01;1.40;;;1.30;;
20689;SDS011;10504;48.762;8.996;2024-03-06T14:58:27;3.27;;;2.17;;
20689;SDS011;10504;48.762;8.996;2024-03-06T15:00:53;2.87;;;2.00;;
20689;SDS011;10504;48.762;8.996;2024-03-06T15:03:19;1.33;;;1.23;;
20689;SDS011;10504;48.762;8.996;2024-03-06T15:05:45;2.13;;;1.70;;